Time;durP1;ratioP1;P1;durP2;ratioP2;P2;SDS_P1;SDS_P2;PMS_P1;PMS_P2;Temp;Humidity;BMP_temperature;BMP_pressure;BME280_temperature;BME280_humidity;BME280_pressure;Samples;Min_cycle;Max_cycle;Signal;HPM_P1;HPM_P2
2024/01/31 00:01:35;;;;;;;12.70;2.73;;;6.10;99.90;;;;;;4949039;29;20897;-48
2024/01/31 00:04:01;;;;;;;12.97;3.10;;;6.10;99.90;;;;;;4949946;28;20983;-48
2024/01/31 00:06:27;;;;;;;11.20;2.30;;;6.10;99.90;;;;;;4950482;28;20429;-49
2024/01/31 00:08:52;;;;;;;7.17;2.30;;;6.00;99.90;;;;;;4950652;29;20189;-48
2024/01/31 00:11:19;;;;;;;8.67;2.10;;;6.00;99.90;;;;;;4950890;28;20189;-48
2024/01/31 00:13:44;;;;;;;6.30;1.87;;;6.10;99.90;;;;;;4948147;28;20733;-48
2024/01/31 00:16:12;;;;;;;6.90;1.70;;;6.00;99.90;;;;;;4950604;29;20451;-48
2024/01/31 00:18:38;;;;;;;9.23;2.23;;;6.00;99.90;;;;;;4950626;28;20266;-48
2024/01/31 00:21:04;;;;;;;13.47;1.60;;;5.90;99.90;;;;;;4949271;28;20912;-48
2024/01/31 00:23:29;;;;;;;8.20;2.00;;;5.90;99.90;;;;;;4949959;28;20186;-48
2024/01/31 00:25:55;;;;;;;8.00;1.73;;;5.90;99.90;;;;;;4949922;28;20190;-48
2024/01/31 00:28:21;;;;;;;1.70;1.37;;;5.90;99.90;;;;;;4950576;29;20178;-48
2024/01/31 00:30:46;;;;;;;7.00;1.70;;;5.90;99.90;;;;;;4950037;29;20690;-47
2024/01/31 00:33:12;;;;;;;4.43;1.90;;;5.80;99.90;;;;;;4949864;28;20623;-49
2024/01/31 00:35:37;;;;;;;12.70;2.90;;;5.80;99.90;;;;;;4949196;28;20574;-49
2024/01/31 00:38:03;;;;;;;10.27;2.70;;;5.80;99.90;;;;;;4950449;29;20714;-48
2024/01/31 00:40:28;;;;;;;10.30;2.80;;;5.70;99.90;;;;;;4947871;28;20265;-49
2024/01/31 00:42:54;;;;;;;9.70;3.27;;;5.70;99.90;;;;;;4950516;28;20184;-49
2024/01/31 00:45:20;;;;;;;8.73;3.27;;;5.70;99.90;;;;;;4950417;29;20665;-48
2024/01/31 00:47:46;;;;;;;16.33;3.40;;;5.60;99.90;;;;;;4948665;28;20190;-48
2024/01/31 00:50:12;;;;;;;9.40;3.30;;;5.60;99.90;;;;;;4949824;28;20326;-49
2024/01/31 00:52:42;;;;;;;14.73;3.23;;;5.60;99.90;;;;;;4949456;28;20237;-49
2024/01/31 00:55:08;;;;;;;27.37;4.30;;;5.50;99.90;;;;;;4949332;29;20422;-48
2024/01/31 00:57:33;;;;;;;15.63;3.30;;;5.50;99.90;;;;;;4948789;29;20429;-49
2024/01/31 01:00:01;;;;;;;17.37;3.30;;;5.50;99.90;;;;;;4950718;29;20434;-48
2024/01/31 01:02:27;;;;;;;17.93;3.87;;;5.50;99.90;;;;;;4948683;28;20269;-48
2024/01/31 01:04:52;;;;;;;8.63;3.43;;;5.60;99.90;;;;;;4949980;29;20517;-48
2024/01/31 01:07:18;;;;;;;14.70;3.63;;;5.50;99.90;;;;;;4949697;28;20213;-48
2024/01/31 01:09:43;;;;;;;11.03;3.67;;;5.50;99.90;;;;;;4948885;28;20276;-48
2024/01/31 01:12:09;;;;;;;7.90;2.60;;;5.60;99.90;;;;;;4948877;28;20247;-49
2024/01/31 01:14:35;;;;;;;12.00;2.90;;;5.50;99.90;;;;;;4949096;29;20197;-49
2024/01/31 01:17:00;;;;;;;9.10;2.80;;;5.50;99.90;;;;;;4949828;29;20182;-48
2024/01/31 01:19:26;;;;;;;8.40;2.57;;;5.50;99.90;;;;;;4950316;28;20190;-50
2024/01/31 01:21:52;;;;;;;11.40;1.80;;;5.50;99.90;;;;;;4949169;28;20276;-48
2024/01/31 01:24:17;;;;;;;11.53;1.60;;;5.40;99.90;;;;;;4949132;28;21009;-49
2024/01/31 01:26:43;;;;;;;6.00;1.37;;;5.40;75.00;;;;;;4948701;29;20178;-49
2024/01/31 01:29:09;;;;;;;3.33;1.13;;;5.30;51.00;;;;;;4949186;29;20702;-48
2024/01/31 01:31:34;;;;;;;4.90;1.20;;;5.30;13.40;;;;;;4949767;29;20618;-49
2024/01/31 01:34:00;;;;;;;7.00;1.20;;;5.20;1.00;;;;;;4949502;28;20182;-49
2024/01/31 01:36:26;;;;;;;2.60;0.90;;;5.20;1.00;;;;;;4949383;28;20190;-48
2024/01/31 01:38:51;;;;;;;6.93;1.30;;;5.30;1.00;;;;;;4947257;28;20635;-48
2024/01/31 01:41:17;;;;;;;4.70;1.27;;;5.20;1.00;;;;;;4949490;29;20410;-48
2024/01/31 01:43:43;;;;;;;5.67;1.03;;;5.30;1.00;;;;;;4950616;29;20179;-49
2024/01/31 01:46:12;;;;;;;5.40;1.30;;;5.20;1.00;;;;;;4948225;29;20213;-49
2024/01/31 01:48:39;;;;;;;7.70;0.80;;;5.20;1.00;;;;;;4948642;28;20233;-50
2024/01/31 01:51:06;;;;;;;2.23;0.80;;;5.20;1.00;;;;;;4948185;28;20466;-48
2024/01/31 01:53:34;;;;;;;3.10;1.00;;;5.20;1.00;;;;;;4951096;28;20467;-48
2024/01/31 01:56:02;;;;;;;3.73;1.10;;;5.20;1.00;;;;;;4952470;28;20475;-49
2024/01/31 01:58:28;;;;;;;6.23;1.20;;;5.10;1.00;;;;;;4951505;29;20438;-49
2024/01/31 02:00:54;;;;;;;2.37;0.93;;;5.10;1.00;;;;;;4951734;29;20457;-48
2024/01/31 02:03:21;;;;;;;3.17;1.00;;;5.10;1.00;;;;;;4952608;28;20502;-48
2024/01/31 02:05:48;;;;;;;7.20;1.17;;;5.10;1.00;;;;;;4951754;28;20426;-49
2024/01/31 02:08:13;;;;;;;8.93;1.20;;;5.10;1.00;;;;;;4951776;29;20422;-49
2024/01/31 02:10:39;;;;;;;4.23;1.10;;;5.00;1.00;;;;;;4952443;28;20461;-48
2024/01/31 02:13:04;;;;;;;3.80;1.00;;;5.00;1.00;;;;;;4950867;29;20829;-48
2024/01/31 02:15:30;;;;;;;4.23;0.97;;;5.00;5.60;;;;;;4951310;29;20186;-49
2024/01/31 02:17:56;;;;;;;6.63;1.40;;;5.10;1.00;;;;;;4953437;28;20178;-49
2024/01/31 02:20:22;;;;;;;4.73;0.97;;;5.00;17.60;;;;;;4950821;28;20190;-48
2024/01/31 02:22:48;;;;;;;2.50;0.90;;;5.10;45.60;;;;;;4952193;29;20220;-48
2024/01/31 02:25:14;;;;;;;2.13;1.00;;;5.00;63.80;;;;;;4950830;28;20780;-49
2024/01/31 02:27:40;;;;;;;4.70;0.90;;;5.00;85.30;;;;;;4951741;28;20421;-49
2024/01/31 02:30:07;;;;;;;5.60;1.73;;;5.00;93.40;;;;;;4951965;28;20477;-48
2024/01/31 02:32:33;;;;;;;4.03;1.07;;;5.00;95.60;;;;;;4951733;28;20840;-48
2024/01/31 02:34:59;;;;;;;3.40;1.30;;;4.90;48.50;;;;;;4951129;29;20513;-49
2024/01/31 02:37:24;;;;;;;7.50;0.83;;;4.80;48.50;;;;;;4952460;28;20185;-49
2024/01/31 02:39:50;;;;;;;3.23;1.03;;;4.80;52.90;;;;;;4950783;29;20244;-49
2024/01/31 02:42:16;;;;;;;9.13;1.23;;;4.70;40.80;;;;;;4951766;28;20241;-50
2024/01/31 02:44:41;;;;;;;9.27;1.33;;;4.70;62.90;;;;;;4951285;28;20201;-49
2024/01/31 02:47:07;;;;;;;11.03;1.70;;;4.70;86.70;;;;;;4949904;28;20193;-49
2024/01/31 02:49:32;;;;;;;10.17;1.27;;;4.70;92.50;;;;;;4951783;28;20324;-49
2024/01/31 02:51:58;;;;;;;5.83;1.57;;;4.70;95.10;;;;;;4950476;29;20669;-50
2024/01/31 02:54:24;;;;;;;7.10;1.47;;;4.70;90.40;;;;;;4951940;29;20657;-48
2024/01/31 02:56:49;;;;;;;8.27;1.53;;;4.70;94.50;;;;;;4951277;28;20923;-49
2024/01/31 02:59:15;;;;;;;10.33;1.50;;;4.70;97.10;;;;;;4952154;28;20514;-49
2024/01/31 03:01:45;;;;;;;8.50;1.70;;;4.70;93.00;;;;;;4949846;29;20297;-49
2024/01/31 03:04:10;;;;;;;19.67;1.87;;;4.70;91.40;;;;;;4951033;28;20186;-49
2024/01/31 03:06:36;;;;;;;13.73;2.67;;;4.70;90.90;;;;;;4951318;29;20488;-50
2024/01/31 03:09:01;;;;;;;9.45;1.30;;;4.70;92.40;;;;;;4951098;28;20186;-49
2024/01/31 03:11:27;;;;;;;11.73;2.43;;;4.70;95.30;;;;;;4950773;28;20281;-50
2024/01/31 03:13:53;;;;;;;7.60;1.60;;;4.60;95.10;;;;;;4951228;28;20183;-50
2024/01/31 03:16:19;;;;;;;9.67;2.63;;;4.70;99.50;;;;;;4951308;28;20189;-49
2024/01/31 03:18:44;;;;;;;7.93;1.33;;;4.70;97.80;;;;;;4950664;28;20186;-49
2024/01/31 03:21:10;;;;;;;20.63;2.33;;;4.70;99.90;;;;;;4950531;29;20938;-49
2024/01/31 03:23:36;;;;;;;9.80;2.30;;;4.70;99.90;;;;;;4950676;29;20650;-49
2024/01/31 03:26:02;;;;;;;12.20;1.80;;;4.70;99.90;;;;;;4950506;29;20228;-49
2024/01/31 03:28:27;;;;;;;11.50;2.00;;;4.70;99.90;;;;;;4950548;28;20453;-49
2024/01/31 03:30:53;;;;;;;11.87;1.87;;;4.70;98.00;;;;;;4951392;29;20679;-50
2024/01/31 03:33:18;;;;;;;8.93;1.87;;;4.70;93.60;;;;;;4949528;28;20178;-50
2024/01/31 03:35:44;;;;;;;6.40;1.70;;;4.70;88.80;;;;;;4951514;29;20261;-50
2024/01/31 03:38:09;;;;;;;19.63;2.03;;;4.70;86.30;;;;;;4949897;28;20545;-49
2024/01/31 03:40:36;;;;;;;9.57;2.13;;;4.70;81.10;;;;;;4950423;29;20272;-49
2024/01/31 03:43:02;;;;;;;8.87;1.97;;;4.70;77.80;;;;;;4950583;28;20193;-50
2024/01/31 03:45:28;;;;;;;13.13;2.40;;;4.70;78.60;;;;;;4950798;29;20418;-49
2024/01/31 03:47:53;;;;;;;12.00;2.57;;;4.70;75.20;;;;;;4950775;29;20232;-48
2024/01/31 03:50:19;;;;;;;22.23;3.97;;;4.70;71.80;;;;;;4950080;28;20280;-48
2024/01/31 03:52:45;;;;;;;10.83;2.60;;;4.60;65.80;;;;;;4949738;29;20187;-48
2024/01/31 03:55:11;;;;;;;10.00;3.00;;;4.70;53.80;;;;;;4950935;29;20434;-48
2024/01/31 03:57:37;;;;;;;10.17;2.17;;;4.70;43.90;;;;;;4949867;28;20422;-48
2024/01/31 04:00:08;;;;;;;12.97;2.23;;;4.70;31.40;;;;;;4950722;29;20281;-49
2024/01/31 04:02:34;;;;;;;8.47;2.13;;;4.70;39.50;;;;;;4948758;28;20430;-48
2024/01/31 04:05:00;;;;;;;11.20;2.70;;;4.60;26.70;;;;;;4951092;28;20433;-48
2024/01/31 04:07:27;;;;;;;15.73;2.40;;;4.70;26.40;;;;;;4949992;29;20697;-48
2024/01/31 04:09:53;;;;;;;13.53;2.80;;;4.70;14.90;;;;;;4951729;29;20305;-49
2024/01/31 04:12:18;;;;;;;13.13;2.03;;;4.70;5.70;;;;;;4948381;29;20560;-48
2024/01/31 04:14:44;;;;;;;8.80;1.90;;;4.70;11.60;;;;;;4950004;28;20212;-50
2024/01/31 04:17:10;;;;;;;13.23;2.20;;;4.70;12.00;;;;;;4950516;29;20253;-49
2024/01/31 04:19:36;;;;;;;12.77;1.73;;;4.70;9.10;;;;;;4949097;29;20665;-50
2024/01/31 04:22:02;;;;;;;27.17;2.23;;;4.70;1.00;;;;;;4950496;28;20697;-49
2024/01/31 04:24:27;;;;;;;8.50;2.00;;;4.70;6.40;;;;;;4949955;29;20426;-50
2024/01/31 04:26:53;;;;;;;17.43;2.60;;;4.70;9.20;;;;;;4949929;29;20240;-49
2024/01/31 04:29:19;;;;;;;14.80;2.17;;;4.70;16.90;;;;;;4948828;28;21025;-49
2024/01/31 04:31:44;;;;;;;13.00;1.90;;;4.70;15.40;;;;;;4950552;29;20260;-49
2024/01/31 04:34:10;;;;;;;16.53;2.93;;;4.70;15.50;;;;;;4949984;29;20189;-49
2024/01/31 04:36:35;;;;;;;9.70;1.87;;;4.70;1.00;;;;;;4949155;28;20190;-49
2024/01/31 04:39:01;;;;;;;10.80;2.20;;;4.60;1.00;;;;;;4949779;28;20190;-50
2024/01/31 04:41:27;;;;;;;12.20;2.53;;;4.60;1.00;;;;;;4950749;28;20232;-50
2024/01/31 04:43:53;;;;;;;15.70;2.47;;;4.60;1.00;;;;;;4950431;28;20196;-50
2024/01/31 04:46:19;;;;;;;14.70;2.80;;;4.60;15.60;;;;;;4948533;28;20414;-50
2024/01/31 04:48:46;;;;;;;11.30;2.10;;;4.60;1.00;;;;;;4949980;28;20253;-50
2024/01/31 04:51:11;;;;;;;12.20;1.60;;;4.60;1.00;;;;;;4949512;28;21007;-50
2024/01/31 04:53:37;;;;;;;10.10;2.10;;;4.60;99.90;;;;;;4949863;28;20525;-50
2024/01/31 04:56:07;;;;;;;12.03;1.60;;;4.60;99.90;;;;;;4948758;28;20182;-50
2024/01/31 04:58:32;;;;;;;11.87;1.83;;;4.60;99.90;;;;;;4949542;28;20189;-50
2024/01/31 05:00:58;;;;;;;10.73;2.17;;;4.70;1.00;;;;;;4949563;29;20505;-51
2024/01/31 05:03:23;;;;;;;11.40;2.17;;;4.60;1.00;;;;;;4949891;28;20206;-50
2024/01/31 05:05:49;;;;;;;10.20;1.80;;;4.60;99.90;;;;;;4949204;28;20186;-50
2024/01/31 05:08:14;;;;;;;9.63;1.67;;;4.70;1.00;;;;;;4950172;29;20240;-50
2024/01/31 05:10:44;;;;;;;8.87;1.73;;;4.70;99.90;;;;;;4948740;29;20214;-50
2024/01/31 05:13:11;;;;;;;3.70;1.40;;;4.60;99.90;;;;;;4949594;28;20955;-51
2024/01/31 05:15:37;;;;;;;14.13;1.50;;;4.60;1.00;;;;;;4948213;28;20440;-50
2024/01/31 05:18:02;;;;;;;15.67;1.50;;;4.60;1.00;;;;;;4950652;29;20418;-50
2024/01/31 05:20:29;;;;;;;7.23;1.63;;;4.70;1.00;;;;;;4948985;28;20730;-49
2024/01/31 05:22:55;;;;;;;10.60;1.53;;;4.70;99.90;;;;;;4949823;28;20175;-50
2024/01/31 05:25:21;;;;;;;9.20;1.37;;;4.60;99.90;;;;;;4949028;28;20437;-49
2024/01/31 05:27:48;;;;;;;7.83;1.60;;;4.70;40.40;;;;;;4952021;29;20426;-50
2024/01/31 05:30:14;;;;;;;7.30;1.70;;;4.70;1.00;;;;;;4952123;28;20232;-49
2024/01/31 05:32:39;;;;;;;8.70;1.70;;;4.70;99.90;;;;;;4952752;29;20418;-50
2024/01/31 05:35:05;;;;;;;8.20;1.60;;;4.70;99.90;;;;;;4951599;28;20190;-50
2024/01/31 05:37:31;;;;;;;14.83;1.73;;;4.70;99.90;;;;;;4952482;28;20182;-49
2024/01/31 05:39:56;;;;;;;8.43;2.03;;;4.70;99.90;;;;;;4951952;28;20474;-50
2024/01/31 05:42:22;;;;;;;12.63;1.70;;;4.80;99.90;;;;;;4954243;28;20274;-49
2024/01/31 05:44:48;;;;;;;8.30;1.53;;;4.80;99.90;;;;;;4951788;29;20182;-49
2024/01/31 05:47:14;;;;;;;15.30;1.80;;;4.80;99.90;;;;;;4951599;29;20182;-49
2024/01/31 05:49:39;;;;;;;13.80;1.93;;;4.80;99.90;;;;;;4951769;28;20882;-49
2024/01/31 05:52:05;;;;;;;12.53;1.80;;;4.80;99.90;;;;;;4952220;29;20668;-50
2024/01/31 05:54:31;;;;;;;8.23;2.03;;;4.70;99.90;;;;;;4952319;29;20190;-50
2024/01/31 05:56:56;;;;;;;9.93;1.63;;;4.80;99.90;;;;;;4951484;28;20261;-51
2024/01/31 05:59:22;;;;;;;11.27;2.13;;;4.80;99.90;;;;;;4953042;28;20190;-50
2024/01/31 06:01:47;;;;;;;12.97;2.00;;;4.80;99.90;;;;;;4951194;29;20187;-50
2024/01/31 06:04:13;;;;;;;11.37;1.60;;;4.80;99.90;;;;;;4951592;29;20189;-49
2024/01/31 06:06:39;;;;;;;25.47;2.30;;;4.80;99.90;;;;;;4952190;29;20190;-50
2024/01/31 06:09:05;;;;;;;10.83;2.27;;;4.80;99.90;;;;;;4952105;29;20762;-50
2024/01/31 06:11:31;;;;;;;15.13;1.90;;;4.80;99.90;;;;;;4951303;29;20655;-50
2024/01/31 06:13:57;;;;;;;7.57;1.87;;;4.80;99.90;;;;;;4950558;28;20425;-50
2024/01/31 06:16:22;;;;;;;10.57;2.20;;;4.90;99.90;;;;;;4952038;28;20186;-50
2024/01/31 06:18:48;;;;;;;3.97;1.40;;;4.90;99.90;;;;;;4952607;29;20178;-50
2024/01/31 06:21:13;;;;;;;11.70;1.77;;;4.90;99.90;;;;;;4951056;28;20567;-49
2024/01/31 06:23:39;;;;;;;9.87;1.70;;;4.90;99.90;;;;;;4952055;28;20224;-50
2024/01/31 06:26:04;;;;;;;11.43;1.73;;;4.90;99.90;;;;;;4951212;28;20190;-50
2024/01/31 06:28:30;;;;;;;5.97;2.10;;;5.00;99.50;;;;;;4950209;29;20189;-50
2024/01/31 06:30:59;;;;;;;10.53;2.13;;;4.90;96.90;;;;;;4952314;28;20272;-49
2024/01/31 06:33:31;;;;;;;14.03;2.10;;;4.90;97.30;;;;;;4951375;29;20213;-50
2024/01/31 06:35:57;;;;;;;9.83;2.30;;;5.00;99.80;;;;;;4952128;29;20913;-50
2024/01/31 06:38:23;;;;;;;5.33;1.93;;;5.00;94.40;;;;;;4950699;28;20972;-49
2024/01/31 06:40:49;;;;;;;11.67;1.90;;;4.90;93.30;;;;;;4950313;28;20960;-50
2024/01/31 06:43:15;;;;;;;7.23;2.07;;;5.00;89.60;;;;;;4951813;28;20418;-49
2024/01/31 06:45:41;;;;;;;9.13;2.10;;;5.00;82.80;;;;;;4952250;28;20591;-49
2024/01/31 06:48:08;;;;;;;12.20;2.17;;;5.00;83.90;;;;;;4950143;29;20285;-49
2024/01/31 06:50:34;;;;;;;11.50;2.00;;;5.00;84.90;;;;;;4952169;29;20600;-49
2024/01/31 06:52:59;;;;;;;10.10;2.10;;;5.10;96.90;;;;;;4951480;29;20496;-50
2024/01/31 06:55:25;;;;;;;9.97;2.17;;;5.00;80.10;;;;;;4950818;28;20297;-49
2024/01/31 06:57:51;;;;;;;5.20;1.70;;;5.00;74.80;;;;;;4950483;28;20190;-50
2024/01/31 07:00:17;;;;;;;5.00;1.77;;;5.10;78.70;;;;;;4952036;29;20630;-50
2024/01/31 07:02:43;;;;;;;12.27;2.03;;;5.00;77.40;;;;;;4951202;28;20421;-49
2024/01/31 07:05:08;;;;;;;5.00;1.47;;;5.00;80.90;;;;;;4950649;29;20582;-50
2024/01/31 07:07:34;;;;;;;9.90;2.00;;;5.10;78.70;;;;;;4951786;28;20227;-50
2024/01/31 07:10:00;;;;;;;4.43;1.60;;;5.10;71.60;;;;;;4951019;28;20309;-50
2024/01/31 07:12:25;;;;;;;11.10;2.37;;;5.10;60.00;;;;;;4950908;29;20191;-50
2024/01/31 07:14:51;;;;;;;20.30;2.47;;;5.10;56.10;;;;;;4951728;29;20247;-50
2024/01/31 07:17:16;;;;;;;6.10;1.60;;;5.10;56.00;;;;;;4949601;29;20292;-50
2024/01/31 07:19:42;;;;;;;10.77;1.73;;;5.10;56.00;;;;;;4950477;28;20195;-50
2024/01/31 07:22:08;;;;;;;11.70;2.27;;;5.10;43.40;;;;;;4950939;28;20285;-49
2024/01/31 07:24:34;;;;;;;29.10;2.93;;;5.10;36.90;;;;;;4951405;29;20525;-50
2024/01/31 07:27:00;;;;;;;9.63;2.07;;;5.20;32.10;;;;;;4950802;28;20265;-50
2024/01/31 07:29:26;;;;;;;8.17;1.93;;;5.20;30.50;;;;;;4949779;29;20512;-51
2024/01/31 07:31:52;;;;;;;10.80;2.10;;;5.20;32.60;;;;;;4950295;28;20193;-50
2024/01/31 07:34:17;;;;;;;11.00;2.30;;;5.20;32.00;;;;;;4952037;29;20178;-50
2024/01/31 07:36:43;;;;;;;9.07;1.50;;;5.20;26.40;;;;;;4950033;28;20179;-51
2024/01/31 07:39:09;;;;;;;8.97;1.70;;;5.20;21.40;;;;;;4950838;29;20186;-50
2024/01/31 07:41:36;;;;;;;15.37;1.93;;;5.20;20.70;;;;;;4950820;28;20215;-50
2024/01/31 07:44:01;;;;;;;15.10;1.60;;;5.30;17.50;;;;;;4950176;28;20422;-50
2024/01/31 07:46:27;;;;;;;9.70;1.80;;;5.30;19.30;;;;;;4950196;28;20429;-51
2024/01/31 07:48:52;;;;;;;5.73;1.53;;;5.30;15.90;;;;;;4950328;28;20321;-50
2024/01/31 07:51:18;;;;;;;8.23;1.63;;;5.30;19.10;;;;;;4949949;28;20578;-50
2024/01/31 07:53:43;;;;;;;12.70;1.70;;;5.30;17.20;;;;;;4949499;28;20182;-50
2024/01/31 07:56:09;;;;;;;9.83;1.80;;;5.40;14.40;;;;;;4950205;29;21057;-50
2024/01/31 07:58:35;;;;;;;11.70;2.00;;;5.40;15.90;;;;;;4950793;28;20205;-50
2024/01/31 08:01:01;;;;;;;15.13;2.00;;;5.40;14.00;;;;;;4980822;28;20255;-50
2024/01/31 08:03:26;;;;;;;14.50;2.37;;;5.50;10.30;;;;;;4949813;28;20178;-51
2024/01/31 08:05:52;;;;;;;6.63;2.00;;;5.50;10.10;;;;;;4950671;28;20761;-50
2024/01/31 08:08:17;;;;;;;12.73;1.83;;;5.50;9.60;;;;;;4950006;29;20690;-50
2024/01/31 08:10:43;;;;;;;6.60;1.70;;;5.50;6.70;;;;;;4949980;29;20701;-50
2024/01/31 08:13:09;;;;;;;11.77;2.20;;;5.50;2.90;;;;;;4950277;28;20210;-50
2024/01/31 08:15:35;;;;;;;14.83;2.20;;;5.50;1.40;;;;;;4948447;28;20186;-50
2024/01/31 08:18:01;;;;;;;9.83;1.83;;;5.60;2.30;;;;;;4950699;29;20194;-50
2024/01/31 08:20:28;;;;;;;6.20;1.83;;;5.60;1.00;;;;;;4951265;28;20430;-50
2024/01/31 08:22:54;;;;;;;14.60;2.00;;;5.60;1.00;;;;;;4950858;28;20759;-50
2024/01/31 08:25:19;;;;;;;9.50;3.10;;;5.60;1.00;;;;;;4948323;28;20418;-50
2024/01/31 08:27:48;;;;;;;7.70;1.57;;;5.70;1.00;;;;;;4949906;28;20293;-51
2024/01/31 08:30:15;;;;;;;10.10;2.00;;;5.70;1.00;;;;;;4949253;29;20210;-50
2024/01/31 08:32:41;;;;;;;7.80;1.63;;;5.60;1.00;;;;;;4951226;28;20476;-51
2024/01/31 08:35:07;;;;;;;11.70;1.90;;;5.60;1.00;;;;;;4950206;28;20414;-49
2024/01/31 08:37:32;;;;;;;16.33;1.80;;;5.70;1.00;;;;;;4949218;28;20218;-49
2024/01/31 08:39:58;;;;;;;7.87;1.60;;;5.60;1.00;;;;;;4949361;28;20460;-50
2024/01/31 08:42:28;;;;;;;11.47;2.07;;;5.60;1.00;;;;;;4949773;29;20236;-49
2024/01/31 08:44:56;;;;;;;7.00;1.50;;;5.70;1.00;;;;;;4950714;29;20563;-49
2024/01/31 08:47:22;;;;;;;12.03;2.10;;;5.80;1.00;;;;;;4949912;29;20755;-51
2024/01/31 08:49:51;;;;;;;9.30;1.60;;;5.80;1.00;;;;;;4948769;29;20500;-51
2024/01/31 08:52:16;;;;;;;10.53;2.30;;;5.80;1.00;;;;;;4947251;28;20607;-50
2024/01/31 08:54:42;;;;;;;9.73;1.93;;;5.80;1.00;;;;;;4950260;28;20418;-50
2024/01/31 08:57:08;;;;;;;8.40;1.80;;;5.80;1.00;;;;;;4949370;29;20237;-50
2024/01/31 08:59:33;;;;;;;13.00;3.00;;;5.90;1.00;;;;;;4948703;28;20182;-49
2024/01/31 09:01:59;;;;;;;9.20;1.83;;;5.90;1.00;;;;;;4949243;29;20433;-49
2024/01/31 09:04:25;;;;;;;7.70;2.13;;;5.90;1.00;;;;;;4950616;29;20186;-49
2024/01/31 09:06:50;;;;;;;9.67;1.80;;;5.90;1.00;;;;;;4949049;28;20193;-49
2024/01/31 09:09:16;;;;;;;9.63;1.93;;;6.00;1.00;;;;;;4949358;29;20578;-49
2024/01/31 09:11:41;;;;;;;6.03;2.07;;;6.00;1.00;;;;;;4949390;28;20235;-50
2024/01/31 09:14:07;;;;;;;10.67;1.70;;;6.10;1.00;;;;;;4948408;29;20189;-50
2024/01/31 09:16:34;;;;;;;10.90;2.10;;;6.10;1.00;;;;;;4949632;28;20213;-49
2024/01/31 09:19:00;;;;;;;7.77;1.87;;;6.20;1.00;;;;;;4950342;28;20191;-50
2024/01/31 09:21:27;;;;;;;6.37;2.00;;;6.20;1.00;;;;;;4948727;28;20575;-49
2024/01/31 09:23:53;;;;;;;10.70;1.97;;;6.30;1.00;;;;;;4949284;29;20778;-49
2024/01/31 09:26:18;;;;;;;10.47;2.10;;;6.30;1.00;;;;;;4949585;29;20414;-49
2024/01/31 09:28:44;;;;;;;10.37;2.20;;;6.30;1.00;;;;;;4947740;28;20430;-50
2024/01/31 09:31:10;;;;;;;7.20;1.60;;;6.30;1.00;;;;;;4948846;28;20254;-49
2024/01/31 09:33:35;;;;;;;12.17;2.00;;;6.20;1.00;;;;;;4948572;29;20193;-49
2024/01/31 09:36:01;;;;;;;13.87;1.90;;;6.20;1.00;;;;;;4948370;29;20183;-49
2024/01/31 09:38:26;;;;;;;6.00;1.40;;;6.30;1.00;;;;;;4949668;28;20183;-50
2024/01/31 09:40:55;;;;;;;9.10;1.70;;;6.50;1.00;;;;;;4949995;29;20186;-49
2024/01/31 09:43:20;;;;;;;6.87;1.77;;;6.60;1.00;;;;;;4948494;28;20187;-49
2024/01/31 09:45:49;;;;;;;7.33;1.80;;;6.80;1.00;;;;;;4948350;28;21024;-50
2024/01/31 09:48:17;;;;;;;9.33;1.80;;;6.80;1.00;;;;;;4948075;28;20225;-50
2024/01/31 09:50:43;;;;;;;7.27;1.77;;;7.00;1.00;;;;;;4949545;28;20556;-50
2024/01/31 09:53:12;;;;;;;12.23;1.57;;;7.00;1.00;;;;;;4950102;29;20497;-50
2024/01/31 09:55:38;;;;;;;8.37;1.40;;;7.00;1.00;;;;;;4947473;28;20171;-49
2024/01/31 09:58:04;;;;;;;6.10;1.50;;;7.00;1.00;;;;;;4947733;28;20580;-49
2024/01/31 10:00:31;;;;;;;4.13;1.60;;;6.90;1.00;;;;;;4949431;28;20418;-49
2024/01/31 10:02:56;;;;;;;13.80;2.00;;;6.90;1.00;;;;;;4949179;29;20233;-51
2024/01/31 10:05:22;;;;;;;16.03;1.93;;;6.90;1.00;;;;;;4948568;29;20453;-51
2024/01/31 10:07:47;;;;;;;13.63;1.70;;;7.00;1.00;;;;;;4948743;28;20205;-50
2024/01/31 10:10:13;;;;;;;7.40;1.77;;;7.10;1.00;;;;;;4948616;29;21068;-50
2024/01/31 10:12:39;;;;;;;7.03;1.73;;;7.10;1.00;;;;;;4947545;28;20706;-50
2024/01/31 10:15:08;;;;;;;12.43;1.90;;;7.20;1.00;;;;;;4953339;28;20186;-49
2024/01/31 10:17:34;;;;;;;10.83;1.80;;;7.10;1.00;;;;;;4951726;29;20268;-50
2024/01/31 10:20:04;;;;;;;13.10;2.40;;;7.10;1.00;;;;;;4950729;28;20917;-50
2024/01/31 10:22:31;;;;;;;10.43;1.40;;;7.00;1.00;;;;;;4952602;29;20183;-50
2024/01/31 10:24:56;;;;;;;10.57;1.63;;;7.00;1.00;;;;;;4950845;28;20945;-51
2024/01/31 10:27:23;;;;;;;9.37;1.83;;;7.00;1.00;;;;;;4951803;28;20445;-50
2024/01/31 10:29:48;;;;;;;9.00;1.93;;;7.00;1.00;;;;;;4952098;29;20302;-50
2024/01/31 10:32:21;;;;;;;17.13;1.90;;;7.20;1.00;;;;;;4950987;29;20505;-50
2024/01/31 10:34:48;;;;;;;8.63;1.50;;;7.30;1.00;;;;;;4951088;29;20190;-50
2024/01/31 10:37:15;;;;;;;12.00;1.97;;;7.30;1.00;;;;;;4950906;29;20429;-50
2024/01/31 10:39:40;;;;;;;3.93;1.47;;;7.20;1.00;;;;;;4951782;28;20518;-50
2024/01/31 10:42:06;;;;;;;5.13;1.50;;;7.20;1.00;;;;;;4951239;28;20505;-50
2024/01/31 10:44:37;;;;;;;3.93;1.40;;;7.20;1.00;;;;;;4951236;28;20186;-50
2024/01/31 10:47:04;;;;;;;6.13;1.50;;;7.10;1.00;;;;;;4951867;28;20197;-50
2024/01/31 10:49:30;;;;;;;9.30;1.63;;;7.20;1.00;;;;;;4951090;28;20486;-50
2024/01/31 10:51:58;;;;;;;12.90;1.87;;;7.40;1.00;;;;;;4952009;28;20518;-50
2024/01/31 10:54:31;;;;;;;10.73;1.90;;;7.60;1.00;;;;;;4951017;28;20613;-49
2024/01/31 10:56:58;;;;;;;5.97;2.33;;;7.60;1.00;;;;;;4951355;29;20410;-50
2024/01/31 10:59:23;;;;;;;9.50;1.60;;;7.50;1.00;;;;;;4952309;28;20413;-50
2024/01/31 11:01:55;;;;;;;6.13;1.60;;;7.50;1.00;;;;;;4951232;28;20925;-49
2024/01/31 11:04:21;;;;;;;9.23;1.60;;;7.40;1.00;;;;;;4950748;29;20193;-51
2024/01/31 11:06:51;;;;;;;6.53;1.40;;;7.30;1.00;;;;;;4951482;28;20516;-50
2024/01/31 11:09:20;;;;;;;4.30;1.67;;;7.40;1.00;;;;;;4950247;28;20499;-50
2024/01/31 11:11:45;;;;;;;7.87;2.10;;;7.40;1.00;;;;;;4951260;29;20414;-49
2024/01/31 11:14:14;;;;;;;6.53;1.77;;;7.30;1.00;;;;;;4950269;28;20944;-50
2024/01/31 11:16:41;;;;;;;5.43;1.30;;;7.10;1.00;;;;;;4950648;28;20758;-50
2024/01/31 11:19:07;;;;;;;3.60;1.10;;;6.90;1.00;;;;;;4951246;29;20544;-50
2024/01/31 11:21:38;;;;;;;3.03;1.20;;;6.80;1.00;;;;;;4951067;29;20902;-50
2024/01/31 11:24:05;;;;;;;5.80;1.30;;;6.60;1.00;;;;;;4950010;28;20187;-50
2024/01/31 11:26:33;;;;;;;10.40;1.43;;;6.60;1.00;;;;;;4951411;29;20422;-50
2024/01/31 11:29:00;;;;;;;9.20;1.53;;;6.40;1.00;;;;;;4951351;28;20413;-49
2024/01/31 11:31:26;;;;;;;4.93;1.37;;;6.30;1.00;;;;;;4949949;29;20504;-50
2024/01/31 11:33:55;;;;;;;4.13;1.03;;;6.30;1.00;;;;;;4949678;28;20430;-50
2024/01/31 11:36:21;;;;;;;4.57;1.90;;;6.30;1.00;;;;;;4950248;28;20650;-50
2024/01/31 11:38:46;;;;;;;9.23;1.83;;;6.30;1.00;;;;;;4951695;29;20518;-50
2024/01/31 11:41:12;;;;;;;1.10;0.90;;;6.30;1.00;;;;;;4951277;29;20192;-50
2024/01/31 11:43:38;;;;;;;8.47;1.30;;;6.20;1.00;;;;;;4951292;28;20190;-50
2024/01/31 11:46:04;;;;;;;8.00;1.50;;;6.20;1.00;;;;;;4949123;28;20542;-50
2024/01/31 11:48:31;;;;;;;4.23;1.43;;;6.20;1.00;;;;;;4949061;28;20484;-49
2024/01/31 11:50:56;;;;;;;4.97;1.47;;;6.30;1.00;;;;;;4951490;28;20218;-51
2024/01/31 11:53:22;;;;;;;2.40;1.53;;;6.20;1.00;;;;;;4951673;28;20517;-50
2024/01/31 11:55:48;;;;;;;3.13;1.43;;;6.20;1.00;;;;;;4949037;29;20186;-50
2024/01/31 11:58:13;;;;;;;4.90;1.67;;;6.20;1.00;;;;;;4949608;29;20551;-50
2024/01/31 12:00:39;;;;;;;5.67;1.50;;;6.10;1.00;;;;;;4950629;29;20182;-51
2024/01/31 12:03:05;;;;;;;11.33;2.20;;;6.00;1.00;;;;;;4951358;28;20650;-50
2024/01/31 12:05:30;;;;;;;5.70;2.07;;;6.10;1.00;;;;;;4949011;29;20198;-50
2024/01/31 12:07:59;;;;;;;2.33;2.13;;;6.10;1.00;;;;;;4950933;29;20430;-50
2024/01/31 12:10:28;;;;;;;7.80;2.10;;;6.10;1.00;;;;;;4949704;29;20248;-50
2024/01/31 12:13:00;;;;;;;9.03;2.80;;;6.00;1.00;;;;;;4951146;29;20466;-50
2024/01/31 12:15:26;;;;;;;3.23;2.90;;;6.00;1.00;;;;;;4950356;28;20920;-50
2024/01/31 12:17:52;;;;;;;6.90;2.37;;;5.90;1.00;;;;;;4950685;28;20418;-50
2024/01/31 12:20:18;;;;;;;7.40;2.77;;;5.90;1.00;;;;;;4948969;28;20446;-50
2024/01/31 12:22:45;;;;;;;7.60;2.63;;;5.90;1.00;;;;;;4951277;28;20465;-49
2024/01/31 12:25:11;;;;;;;5.20;2.80;;;5.90;1.00;;;;;;4949404;29;20421;-50
2024/01/31 12:27:36;;;;;;;5.43;2.50;;;5.90;1.00;;;;;;4950363;28;20517;-49
2024/01/31 12:30:04;;;;;;;10.47;5.73;;;5.90;1.00;;;;;;4949901;28;20545;-50
2024/01/31 12:32:29;;;;;;;7.80;7.00;;;5.90;1.00;;;;;;4949685;29;20202;-50
2024/01/31 12:34:55;;;;;;;9.87;6.23;;;5.90;1.00;;;;;;4949816;28;20433;-50
2024/01/31 12:37:21;;;;;;;7.17;5.67;;;5.80;1.00;;;;;;4949710;29;20529;-51
2024/01/31 12:39:46;;;;;;;13.83;6.93;;;5.80;1.00;;;;;;4949213;29;20244;-50
2024/01/31 12:42:12;;;;;;;9.10;6.80;;;5.80;1.00;;;;;;4948443;29;20187;-51
2024/01/31 12:44:37;;;;;;;6.07;5.47;;;5.70;1.00;;;;;;4951054;28;20614;-50
2024/01/31 12:47:08;;;;;;;8.50;4.97;;;5.80;1.00;;;;;;4950079;28;20194;-49
2024/01/31 12:49:40;;;;;;;5.33;4.27;;;5.80;1.00;;;;;;4949102;28;20587;-48
2024/01/31 12:52:07;;;;;;;8.30;4.57;;;5.80;1.00;;;;;;4948764;29;20414;-49